Time;durP1;ratioP1;P1;durP2;ratioP2;P2;SDS_P1;SDS_P2;PMS_P1;PMS_P2;Temp;Humidity;BMP_temperature;BMP_pressure;BME280_temperature;BME280_humidity;BME280_pressure;Samples;Min_cycle;Max_cycle;Signal;HPM_P1;HPM_P2
2023/03/08 00:02:00;;;;;;;51.58;25.77;;;5.30;80.40;;;;;;5075114;28;20033;-16
2023/03/08 00:04:26;;;;;;;62.03;29.10;;;5.30;79.30;;;;;;5075075;28;20123;-16
2023/03/08 00:06:51;;;;;;;54.08;24.08;;;5.30;80.00;;;;;;5074999;28;20050;-17
2023/03/08 00:09:17;;;;;;;53.88;24.98;;;5.20;79.70;;;;;;5075211;28;20024;-17
2023/03/08 00:11:43;;;;;;;42.30;22.52;;;5.20;79.00;;;;;;5075157;28;20064;-17
2023/03/08 00:14:09;;;;;;;39.67;21.50;;;5.20;78.60;;;;;;5073726;28;20147;-17
2023/03/08 00:16:35;;;;;;;41.00;22.38;;;5.20;78.60;;;;;;5166697;22;20044;-17
2023/03/08 00:19:01;;;;;;;52.75;26.38;;;5.10;79.10;;;;;;5094124;28;20390;-17
2023/03/08 00:21:27;;;;;;;37.70;20.48;;;5.10;78.80;;;;;;5095275;28;20042;-16
2023/03/08 00:23:53;;;;;;;42.70;21.55;;;5.10;78.40;;;;;;5076606;28;20032;-16
2023/03/08 00:26:19;;;;;;;47.50;21.92;;;5.00;78.10;;;;;;5095127;28;20110;-18
2023/03/08 00:28:46;;;;;;;37.15;19.83;;;4.90;78.40;;;;;;5094514;28;20383;-17
2023/03/08 00:31:13;;;;;;;37.38;19.52;;;4.90;78.40;;;;;;5094631;28;20056;-16
2023/03/08 00:33:39;;;;;;;42.95;19.92;;;4.80;78.50;;;;;;5094669;28;20371;-19
2023/03/08 00:36:13;;;;;;;48.33;24.08;;;4.80;78.40;;;;;;5094541;28;20046;-16
2023/03/08 00:38:39;;;;;;;49.80;24.33;;;4.70;78.40;;;;;;5094497;28;20032;-15
2023/03/08 00:41:05;;;;;;;49.08;25.13;;;4.60;78.40;;;;;;5094544;28;20074;-18
2023/03/08 00:43:31;;;;;;;46.60;23.88;;;4.60;78.40;;;;;;5094393;28;20119;-17
2023/03/08 00:45:57;;;;;;;53.28;25.48;;;4.40;78.50;;;;;;5094634;28;20024;-18
2023/03/08 00:48:23;;;;;;;44.25;21.77;;;4.40;79.40;;;;;;5094609;28;20471;-17
2023/03/08 00:50:50;;;;;;;53.70;24.73;;;4.40;79.10;;;;;;5094425;28;20108;-16
2023/03/08 00:53:16;;;;;;;36.95;20.08;;;4.30;78.90;;;;;;5094727;28;20070;-16
2023/03/08 00:55:49;;;;;;;42.58;20.98;;;4.30;79.30;;;;;;5094343;28;20036;-18
2023/03/08 00:58:16;;;;;;;;;;;4.30;79.10;;;;;;5094971;28;20046;-16
2023/03/08 01:00:41;;;;;;;44.13;22.00;;;4.40;79.40;;;;;;5094261;28;19954;-16
2023/03/08 01:03:08;;;;;;;41.33;20.20;;;4.30;79.70;;;;;;5093977;28;20047;-18
2023/03/08 01:05:41;;;;;;;53.15;26.42;;;4.30;79.80;;;;;;5094231;28;20023;-18
2023/03/08 01:08:08;;;;;;;50.72;22.05;;;4.20;79.40;;;;;;5094013;28;20040;-17
2023/03/08 01:10:34;;;;;;;48.55;21.63;;;4.20;79.50;;;;;;5093985;28;20037;-18
2023/03/08 01:13:00;;;;;;;32.22;17.05;;;4.10;79.40;;;;;;5093961;28;20035;-18
2023/03/08 01:15:26;;;;;;;38.22;19.63;;;4.10;79.20;;;;;;5140329;22;20048;-20
2023/03/08 01:17:52;;;;;;;37.65;19.48;;;4.10;79.40;;;;;;5073844;28;20093;-21
2023/03/08 01:20:18;;;;;;;50.10;25.50;;;4.00;79.60;;;;;;5073428;28;20375;-21
2023/03/08 01:22:44;;;;;;;40.78;20.52;;;4.00;79.70;;;;;;5073472;28;20028;-21
2023/03/08 01:25:10;;;;;;;30.55;16.30;;;3.90;79.60;;;;;;5131046;22;20131;-19
2023/03/08 01:27:36;;;;;;;32.97;18.05;;;3.90;79.60;;;;;;5073627;28;20031;-18
2023/03/08 01:30:02;;;;;;;42.47;20.83;;;3.90;79.20;;;;;;5072462;28;20475;-18
2023/03/08 01:32:28;;;;;;;33.92;17.50;;;3.90;79.50;;;;;;5073455;28;20025;-19
2023/03/08 01:34:55;;;;;;;35.42;18.58;;;3.90;79.30;;;;;;5073190;28;20384;-17
2023/03/08 01:37:21;;;;;;;40.15;20.42;;;3.90;79.20;;;;;;5134422;22;20048;-23
2023/03/08 01:39:47;;;;;;;36.85;18.38;;;3.90;79.30;;;;;;5093375;28;20020;-22
2023/03/08 01:42:12;;;;;;;34.95;18.55;;;3.80;79.20;;;;;;5053051;22;20031;-22
2023/03/08 01:45:29;;;;;;;41.30;20.13;;;3.80;79.30;;;;;;5071970;28;20036;-27
2023/03/08 01:47:55;;;;;;;31.23;17.10;;;3.70;79.20;;;;;;5038688;28;20029;-22
2023/03/08 01:50:21;;;;;;;38.55;19.10;;;3.60;79.30;;;;;;5072899;28;20020;-20
2023/03/08 01:52:53;;;;;;;49.05;22.33;;;3.70;79.30;;;;;;5072898;28;20017;-21
2023/03/08 01:55:20;;;;;;;47.08;22.83;;;3.90;80.20;;;;;;5072818;28;20063;-19
2023/03/08 01:57:52;;;;;;;46.60;23.90;;;3.90;80.20;;;;;;5072921;28;20024;-22
2023/03/08 02:00:24;;;;;;;38.08;20.45;;;3.80;80.00;;;;;;5072736;28;20472;-22
2023/03/08 02:02:54;;;;;;;45.78;22.30;;;3.60;79.90;;;;;;5072831;28;20032;-21
2023/03/08 02:05:21;;;;;;;48.75;24.52;;;3.60;79.90;;;;;;5072900;28;20079;-21
2023/03/08 02:07:47;;;;;;;41.70;21.73;;;3.70;80.10;;;;;;5072925;28;20082;-22
2023/03/08 02:10:14;;;;;;;45.65;23.13;;;3.60;80.10;;;;;;5072532;28;20056;-20
2023/03/08 02:12:40;;;;;;;42.72;22.50;;;3.70;80.60;;;;;;5072581;28;20032;-20
2023/03/08 02:15:09;;;;;;;49.60;23.88;;;3.80;81.00;;;;;;5072869;28;20047;-21
2023/03/08 02:17:38;;;;;;;48.17;22.83;;;3.80;81.10;;;;;;5072435;28;20031;-21
2023/03/08 02:20:25;;;;;;;43.35;23.60;;;3.80;81.20;;;;;;5054356;28;20028;-22
2023/03/08 02:22:52;;;;;;;48.90;24.08;;;3.80;81.00;;;;;;5072611;28;20017;-22
2023/03/08 02:25:21;;;;;;;46.90;22.88;;;3.70;80.90;;;;;;5072224;28;20037;-22
2023/03/08 02:27:48;;;;;;;46.47;24.02;;;3.60;80.70;;;;;;5072696;28;20078;-22
2023/03/08 02:30:17;;;;;;;48.03;24.27;;;3.50;80.70;;;;;;5072322;28;20111;-21
2023/03/08 02:32:43;;;;;;;44.13;22.85;;;3.40;80.60;;;;;;5146517;22;20056;-18
2023/03/08 02:35:09;;;;;;;41.30;20.65;;;3.40;80.70;;;;;;5092808;28;20437;-17
2023/03/08 02:37:35;;;;;;;44.72;22.67;;;3.20;80.70;;;;;;5092586;28;20024;-19
2023/03/08 02:40:01;;;;;;;47.47;22.60;;;3.10;80.80;;;;;;5092764;28;20027;-18
2023/03/08 02:42:27;;;;;;;44.58;22.40;;;3.10;80.90;;;;;;5092069;28;20024;-16
2023/03/08 02:44:53;;;;;;;45.25;23.17;;;3.00;81.10;;;;;;5092299;28;20487;-16
2023/03/08 02:47:19;;;;;;;41.10;21.60;;;2.90;81.10;;;;;;5092611;28;20042;-18
2023/03/08 02:49:44;;;;;;;52.70;25.00;;;2.90;81.10;;;;;;5091108;28;20051;-19
2023/03/08 02:52:10;;;;;;;55.35;26.25;;;2.90;81.10;;;;;;5092520;28;20512;-17
2023/03/08 02:54:36;;;;;;;56.28;25.63;;;2.90;81.20;;;;;;5092344;28;20489;-19
2023/03/08 02:57:02;;;;;;;50.13;24.33;;;2.90;81.30;;;;;;5092331;28;20028;-19
2023/03/08 02:59:29;;;;;;;51.63;25.90;;;2.90;81.40;;;;;;5092214;28;20054;-18
2023/03/08 03:01:56;;;;;;;48.35;24.73;;;2.90;81.50;;;;;;5092450;28;20082;-19
2023/03/08 03:04:22;;;;;;;49.78;24.10;;;2.90;81.50;;;;;;5092072;28;20036;-18
2023/03/08 03:06:48;;;;;;;56.10;26.58;;;2.90;81.50;;;;;;5091979;28;20050;-16
2023/03/08 03:09:14;;;;;;;50.17;24.35;;;2.90;81.40;;;;;;5092345;28;20522;-16
2023/03/08 03:11:40;;;;;;;38.50;20.90;;;2.90;81.40;;;;;;5092380;28;20028;-18
2023/03/08 03:14:06;;;;;;;51.50;24.83;;;2.90;81.50;;;;;;5090796;28;20475;-17
2023/03/08 03:16:32;;;;;;;48.03;22.58;;;2.90;81.50;;;;;;5092307;28;20202;-17
2023/03/08 03:18:59;;;;;;;46.83;24.85;;;2.90;81.60;;;;;;5179021;22;20392;-16
2023/03/08 03:21:28;;;;;;;37.60;19.25;;;2.80;81.80;;;;;;5092390;28;20028;-17
2023/03/08 03:23:54;;;;;;;37.35;20.30;;;2.70;81.60;;;;;;5092197;28;20516;-17
2023/03/08 03:26:22;;;;;;;39.30;20.05;;;2.60;81.60;;;;;;5091935;28;20066;-17
2023/03/08 03:28:48;;;;;;;34.28;19.42;;;2.50;81.50;;;;;;5091734;28;20515;-16
2023/03/08 03:31:20;;;;;;;33.78;16.83;;;2.40;81.40;;;;;;5091968;28;20020;-17
2023/03/08 03:33:46;;;;;;;46.67;22.92;;;2.30;81.40;;;;;;5092085;28;20027;-18
2023/03/08 03:36:15;;;;;;;48.63;23.63;;;2.30;81.50;;;;;;5091851;28;20498;-16
2023/03/08 03:38:42;;;;;;;45.53;23.75;;;2.20;81.50;;;;;;5091735;28;20020;-16
2023/03/08 03:41:11;;;;;;;48.17;22.88;;;2.20;81.50;;;;;;5091737;28;20348;-16
2023/03/08 03:43:38;;;;;;;39.38;20.92;;;2.20;81.60;;;;;;5091747;28;20035;-17
2023/03/08 03:46:06;;;;;;;42.55;22.33;;;2.10;81.60;;;;;;5091935;28;20491;-17
2023/03/08 03:48:34;;;;;;;46.67;22.42;;;2.10;81.60;;;;;;5091840;28;20054;-18
2023/03/08 03:51:03;;;;;;;47.08;22.00;;;2.10;81.60;;;;;;5091580;28;20026;-18
2023/03/08 03:53:33;;;;;;;48.85;24.33;;;2.00;81.60;;;;;;5093432;28;20016;-16
2023/03/08 03:56:12;;;;;;;48.97;24.33;;;2.00;81.60;;;;;;5095662;28;20464;-16
2023/03/08 03:58:38;;;;;;;45.85;23.10;;;1.90;81.50;;;;;;5095643;28;20021;-16
2023/03/08 04:01:25;;;;;;;43.85;20.55;;;1.90;81.60;;;;;;5095313;28;20499;-18
2023/03/08 04:03:52;;;;;;;49.40;25.38;;;1.90;81.70;;;;;;5095290;28;20497;-15
2023/03/08 04:06:23;;;;;;;48.60;22.02;;;1.90;81.80;;;;;;5095293;28;20020;-15
2023/03/08 04:08:54;;;;;;;42.75;20.25;;;1.90;81.90;;;;;;5095236;28;20027;-12
2023/03/08 04:11:23;;;;;;;50.47;23.80;;;1.90;81.90;;;;;;5095638;28;20531;-17
2023/03/08 04:13:49;;;;;;;43.83;22.60;;;1.80;81.80;;;;;;5094928;28;20031;-17
2023/03/08 04:16:21;;;;;;;40.92;19.17;;;1.80;81.80;;;;;;5187205;22;20028;-15
2023/03/08 04:18:47;;;;;;;41.90;21.83;;;1.80;81.80;;;;;;5052937;28;20131;-16
2023/03/08 04:21:13;;;;;;;33.85;17.98;;;1.80;81.80;;;;;;5054609;28;20115;-16
2023/03/08 04:23:40;;;;;;;44.30;22.52;;;1.80;81.80;;;;;;5054500;28;20464;-15
2023/03/08 04:26:06;;;;;;;41.58;21.08;;;1.90;81.80;;;;;;5054500;28;20456;-17
2023/03/08 04:28:32;;;;;;;36.13;18.40;;;1.90;81.90;;;;;;5054632;28;20053;-16
2023/03/08 04:30:59;;;;;;;37.45;19.63;;;1.80;81.80;;;;;;5054321;28;20068;-16
2023/03/08 04:33:25;;;;;;;42.60;21.63;;;1.80;81.60;;;;;;5054603;28;20113;-17
2023/03/08 04:35:51;;;;;;;35.35;18.70;;;1.80;81.70;;;;;;5054343;28;20472;-15
2023/03/08 04:38:18;;;;;;;46.22;23.35;;;1.80;81.60;;;;;;5054671;28;20043;-16
2023/03/08 04:43:36;;;;;;;39.85;20.00;;;1.80;81.50;;;;;;5054695;28;20071;-16
2023/03/08 04:46:03;;;;;;;49.80;24.98;;;1.80;81.70;;;;;;5054179;28;20040;-17
2023/03/08 04:48:29;;;;;;;44.38;20.75;;;1.80;81.50;;;;;;5054139;28;20113;-17
2023/03/08 04:50:58;;;;;;;36.03;17.35;;;1.80;81.50;;;;;;5053950;28;20170;-17
2023/03/08 04:53:25;;;;;;;48.90;23.48;;;1.70;81.40;;;;;;5054064;28;20040;-17
2023/03/08 04:55:51;;;;;;;47.15;23.48;;;1.80;81.50;;;;;;5052699;28;20025;-18
2023/03/08 04:58:17;;;;;;;48.05;23.88;;;1.80;81.70;;;;;;5054039;28;20118;-17
2023/03/08 05:00:44;;;;;;;44.03;23.15;;;1.80;81.60;;;;;;5053859;28;20057;-17
2023/03/08 05:03:11;;;;;;;51.08;25.85;;;1.80;81.50;;;;;;5053688;28;20033;-16
2023/03/08 05:05:37;;;;;;;41.97;21.67;;;1.70;81.40;;;;;;5053659;28;20029;-18
2023/03/08 05:08:04;;;;;;;39.83;20.98;;;1.70;81.30;;;;;;5054069;28;20100;-16
2023/03/08 05:10:33;;;;;;;41.30;21.42;;;1.70;81.30;;;;;;5053699;28;20033;-16
2023/03/08 05:12:59;;;;;;;32.17;18.83;;;1.70;81.50;;;;;;5053533;28;20032;-16
2023/03/08 05:15:25;;;;;;;44.97;22.67;;;1.70;81.50;;;;;;5053959;28;20033;-16
2023/03/08 05:17:51;;;;;;;32.90;17.35;;;1.70;81.60;;;;;;5053435;28;20080;-16
2023/03/08 05:20:17;;;;;;;42.10;21.05;;;1.70;81.40;;;;;;5053529;28;20392;-17
2023/03/08 05:22:44;;;;;;;34.17;17.50;;;1.70;81.20;;;;;;5052009;28;20484;-18
2023/03/08 05:25:10;;;;;;;28.33;15.80;;;1.70;81.10;;;;;;5053407;28;20109;-16
2023/03/08 05:27:36;;;;;;;30.88;17.63;;;1.70;81.20;;;;;;5053575;28;20035;-18
2023/03/08 05:30:05;;;;;;;37.88;18.60;;;1.70;81.20;;;;;;5053407;28;20033;-18
2023/03/08 05:32:31;;;;;;;34.88;17.08;;;1.70;81.20;;;;;;5053145;28;20052;-16
2023/03/08 05:34:57;;;;;;;36.35;17.20;;;1.60;81.10;;;;;;5053074;28;20017;-16
2023/03/08 05:37:24;;;;;;;31.25;16.77;;;1.60;81.20;;;;;;5053219;28;20052;-16
2023/03/08 05:39:51;;;;;;;29.52;15.93;;;1.60;81.30;;;;;;5053696;28;20029;-18
2023/03/08 05:42:18;;;;;;;37.50;18.52;;;1.60;81.20;;;;;;5053142;28;20032;-17
2023/03/08 05:44:45;;;;;;;37.90;18.88;;;1.60;81.00;;;;;;5052823;28;20025;-16
2023/03/08 05:47:11;;;;;;;40.33;21.65;;;1.70;80.80;;;;;;5052871;28;20063;-18
2023/03/08 05:49:37;;;;;;;50.80;25.98;;;1.80;81.20;;;;;;5052968;28;20522;-17
2023/03/08 05:52:03;;;;;;;45.45;22.10;;;1.80;81.30;;;;;;5051665;28;20055;-17
2023/03/08 05:54:29;;;;;;;43.15;21.48;;;1.90;81.40;;;;;;5052881;28;20024;-16
2023/03/08 05:56:55;;;;;;;45.25;23.38;;;1.90;81.50;;;;;;5052736;28;20028;-16
2023/03/08 05:59:21;;;;;;;56.45;26.88;;;1.90;81.60;;;;;;5053196;28;20032;-16
2023/03/08 06:01:47;;;;;;;44.08;22.98;;;2.00;81.70;;;;;;5052963;28;20484;-17
2023/03/08 06:04:13;;;;;;;43.60;22.48;;;2.10;81.80;;;;;;5052900;28;20025;-17
2023/03/08 06:06:41;;;;;;;58.63;27.17;;;2.20;82.00;;;;;;5052721;28;20530;-15
2023/03/08 06:09:07;;;;;;;63.10;30.05;;;2.20;81.80;;;;;;5051371;28;20104;-14
2023/03/08 06:11:33;;;;;;;58.00;28.00;;;2.30;81.40;;;;;;5052612;28;20108;-13
2023/03/08 06:13:59;;;;;;;56.95;26.73;;;2.40;81.10;;;;;;5052698;28;20079;-14
2023/03/08 06:16:25;;;;;;;48.97;23.70;;;2.40;81.20;;;;;;5051909;28;20047;-15
2023/03/08 06:18:51;;;;;;;59.28;26.20;;;2.40;81.20;;;;;;5052286;28;20131;-13
2023/03/08 06:21:20;;;;;;;48.15;24.48;;;2.40;81.00;;;;;;5052464;28;20031;-11
2023/03/08 06:23:46;;;;;;;58.40;29.27;;;2.50;80.90;;;;;;5052665;28;20017;-16
2023/03/08 06:26:12;;;;;;;54.95;26.17;;;2.50;80.70;;;;;;5052671;28;20033;-15
2023/03/08 06:28:41;;;;;;;44.20;22.80;;;2.60;81.00;;;;;;5052732;28;20112;-15
2023/03/08 06:31:10;;;;;;;47.00;24.17;;;2.60;80.60;;;;;;5052378;28;20468;-16
2023/03/08 06:33:36;;;;;;;50.42;26.10;;;2.80;80.80;;;;;;5052322;28;20032;-15
2023/03/08 06:36:17;;;;;;;57.90;26.45;;;2.90;80.90;;;;;;5052307;28;20025;-17
2023/03/08 06:38:43;;;;;;;53.50;27.38;;;2.90;81.20;;;;;;5052197;28;20385;-16
2023/03/08 06:41:11;;;;;;;58.20;27.65;;;3.00;81.20;;;;;;5052537;28;20044;-16
2023/03/08 06:43:37;;;;;;;49.40;25.02;;;3.10;80.90;;;;;;5052452;28;20458;-18
2023/03/08 06:46:15;;;;;;;67.10;32.30;;;3.20;81.30;;;;;;5052555;28;20059;-15
2023/03/08 06:48:41;;;;;;;66.88;33.40;;;3.40;81.20;;;;;;5052087;28;20025;-18
2023/03/08 06:51:08;;;;;;;69.13;33.13;;;3.50;81.10;;;;;;5052420;28;20017;-16
2023/03/08 06:53:40;;;;;;;71.53;34.67;;;3.70;81.10;;;;;;5052335;28;20096;-16
2023/03/08 06:56:07;;;;;;;65.03;31.10;;;3.90;80.80;;;;;;5052188;28;20116;-15
2023/03/08 06:58:35;;;;;;;67.78;33.63;;;3.90;80.30;;;;;;5052182;28;20021;-17
2023/03/08 07:01:03;;;;;;;64.22;29.70;;;3.90;80.20;;;;;;5050421;28;20025;-16
2023/03/08 07:03:29;;;;;;;58.55;30.67;;;4.00;80.30;;;;;;5051856;28;20025;-17
2023/03/08 07:06:07;;;;;;;59.42;28.40;;;4.10;80.60;;;;;;5051950;28;20139;-17
2023/03/08 07:08:34;;;;;;;55.22;28.00;;;4.30;80.50;;;;;;5052004;28;20021;-16
2023/03/08 07:11:00;;;;;;;60.70;29.67;;;4.60;80.90;;;;;;5052057;28;20064;-18
2023/03/08 07:13:27;;;;;;;64.85;31.50;;;4.90;80.50;;;;;;5052179;28;20024;-16
2023/03/08 07:15:53;;;;;;;57.58;26.70;;;5.10;80.40;;;;;;5051900;28;20460;-16
2023/03/08 07:18:19;;;;;;;53.40;26.55;;;5.40;80.60;;;;;;5051669;28;20061;-15
2023/03/08 07:20:50;;;;;;;60.67;28.05;;;5.50;80.40;;;;;;5051918;28;20033;-16
2023/03/08 07:23:16;;;;;;;80.75;39.72;;;5.70;80.20;;;;;;5052049;28;20025;-16
2023/03/08 07:25:41;;;;;;;63.20;31.02;;;5.90;79.80;;;;;;5051832;28;20052;-16
2023/03/08 07:28:07;;;;;;;58.72;27.27;;;6.00;79.80;;;;;;5052983;28;20064;-16
2023/03/08 07:30:33;;;;;;;53.33;26.70;;;6.20;79.90;;;;;;5055661;28;20021;-13
2023/03/08 07:32:59;;;;;;;50.50;26.90;;;6.40;79.70;;;;;;5055402;28;20085;-14
2023/03/08 07:35:24;;;;;;;50.65;25.13;;;6.50;79.30;;;;;;5055727;28;20120;-14
2023/03/08 07:37:50;;;;;;;49.85;24.45;;;6.60;79.40;;;;;;5055623;28;20123;-15
2023/03/08 07:40:17;;;;;;;45.63;24.48;;;6.70;79.20;;;;;;5054239;28;20024;-17
2023/03/08 07:42:43;;;;;;;46.10;24.58;;;6.90;79.10;;;;;;5055587;28;20024;-16
2023/03/08 07:45:11;;;;;;;53.42;26.08;;;7.00;79.10;;;;;;5055642;28;20028;-17
2023/03/08 07:47:37;;;;;;;54.55;26.50;;;7.10;79.10;;;;;;5055225;28;20558;-17
2023/03/08 07:50:04;;;;;;;53.45;27.00;;;7.20;78.80;;;;;;5055644;28;20029;-15
2023/03/08 07:52:30;;;;;;;49.50;25.48;;;7.40;78.20;;;;;;5055522;28;20029;-16
2023/03/08 07:54:55;;;;;;;50.63;25.75;;;7.40;78.00;;;;;;5055251;28;20021;-16
2023/03/08 07:57:22;;;;;;;45.88;24.13;;;7.40;78.00;;;;;;5055216;28;20021;-14
2023/03/08 07:59:49;;;;;;;44.00;24.65;;;7.50;78.20;;;;;;5055142;28;20024;-17
2023/03/08 08:02:16;;;;;;;48.13;24.70;;;7.60;78.20;;;;;;5055237;28;20074;-15
2023/03/08 08:04:42;;;;;;;65.20;34.05;;;7.70;78.40;;;;;;5054697;28;20036;-18
2023/03/08 08:07:13;;;;;;;54.97;28.45;;;7.90;78.00;;;;;;5055169;28;20488;-17
2023/03/08 08:09:39;;;;;;;42.75;23.73;;;8.00;78.30;;;;;;5053643;28;20044;-16
2023/03/08 08:12:06;;;;;;;46.08;24.38;;;8.20;78.00;;;;;;5055199;28;20021;-17
2023/03/08 08:14:31;;;;;;;43.33;23.38;;;8.40;78.40;;;;;;5054861;28;20353;-18
2023/03/08 08:16:58;;;;;;;39.70;21.00;;;8.60;78.20;;;;;;5054335;28;20114;-17
2023/03/08 08:19:24;;;;;;;37.85;20.00;;;8.90;77.50;;;;;;5055087;28;20091;-18
2023/03/08 08:21:50;;;;;;;34.25;19.90;;;9.20;77.40;;;;;;5054780;28;20040;-18
2023/03/08 08:24:16;;;;;;;40.20;21.48;;;9.40;77.50;;;;;;5054547;28;20102;-17
2023/03/08 08:26:42;;;;;;;48.97;23.33;;;9.70;77.10;;;;;;5054457;28;20056;-17
2023/03/08 08:29:08;;;;;;;38.90;20.42;;;9.90;77.00;;;;;;5054580;28;20069;-16
2023/03/08 08:31:33;;;;;;;42.03;21.85;;;10.30;76.40;;;;;;5054737;28;20056;-16
2023/03/08 08:33:59;;;;;;;37.83;21.00;;;10.50;75.80;;;;;;5054591;28;20060;-17
2023/03/08 08:36:26;;;;;;;36.97;20.38;;;10.80;75.50;;;;;;5054495;28;20036;-15
2023/03/08 08:38:53;;;;;;;37.90;20.27;;;11.10;75.40;;;;;;5053882;28;20044;-14
2023/03/08 08:41:20;;;;;;;31.15;18.85;;;11.30;74.90;;;;;;5054388;28;20040;-15
2023/03/08 08:43:47;;;;;;;35.28;19.50;;;11.50;73.70;;;;;;5054530;28;20033;-15
2023/03/08 08:46:15;;;;;;;35.05;20.23;;;11.70;72.70;;;;;;5054444;28;20384;-15
2023/03/08 08:48:41;;;;;;;35.13;19.92;;;11.90;72.40;;;;;;5053922;28;20112;-13
2023/03/08 08:51:08;;;;;;;35.25;18.15;;;11.90;72.40;;;;;;5054767;28;20029;-13
2023/03/08 08:53:35;;;;;;;37.22;18.33;;;12.00;71.70;;;;;;5054289;28;20017;-11
2023/03/08 08:56:30;;;;;;;31.30;17.02;;;12.20;72.40;;;;;;5054485;28;20472;-14
2023/03/08 08:58:59;;;;;;;31.20;17.05;;;12.40;71.50;;;;;;4995582;28;20112;-16
2023/03/08 09:01:28;;;;;;;28.20;16.45;;;12.60;70.90;;;;;;5012093;28;20113;-14
2023/03/08 09:03:55;;;;;;;29.50;16.17;;;12.70;71.10;;;;;;5012145;28;20058;-16
2023/03/08 09:06:22;;;;;;;25.98;15.38;;;12.90;70.40;;;;;;5012349;28;20092;-16
2023/03/08 09:08:49;;;;;;;31.55;16.38;;;13.20;70.20;;;;;;5011771;28;20037;-16
2023/03/08 09:11:16;;;;;;;29.38;16.23;;;13.40;69.20;;;;;;5012113;28;20425;-17
2023/03/08 09:13:41;;;;;;;33.83;16.10;;;13.60;69.40;;;;;;5012127;28;20113;-17
2023/03/08 09:16:27;;;;;;;27.95;14.55;;;13.90;68.00;;;;;;5012303;28;20160;-16
2023/03/08 09:18:57;;;;;;;29.75;15.65;;;14.20;67.30;;;;;;5011667;28;20129;-16
2023/03/08 09:21:24;;;;;;;26.88;15.32;;;14.40;66.50;;;;;;5011763;28;20033;-15
2023/03/08 09:23:50;;;;;;;28.10;14.85;;;14.60;66.10;;;;;;5011811;28;20026;-17
2023/03/08 09:26:17;;;;;;;26.27;15.45;;;14.80;65.90;;;;;;5011766;28;20034;-18
2023/03/08 09:28:43;;;;;;;24.25;14.15;;;14.90;65.20;;;;;;5011463;28;20057;-17
2023/03/08 09:31:13;;;;;;;28.95;15.10;;;15.10;65.10;;;;;;5011571;28;20029;-17
2023/03/08 09:33:45;;;;;;;28.75;15.80;;;15.40;64.10;;;;;;5011495;28;20046;-17
2023/03/08 09:36:12;;;;;;;28.75;16.85;;;15.60;63.20;;;;;;5047699;28;20037;-17
2023/03/08 09:38:38;;;;;;;26.25;15.40;;;15.70;62.20;;;;;;5053572;28;20130;-16
2023/03/08 09:41:16;;;;;;;27.20;14.05;;;15.60;62.70;;;;;;5053494;28;20028;-16
2023/03/08 09:44:16;;;;;;;21.98;13.10;;;15.50;61.90;;;;;;5053372;28;20082;-16
2023/03/08 09:46:48;;;;;;;27.17;14.70;;;15.70;62.20;;;;;;5052959;28;20029;-16
2023/03/08 09:49:31;;;;;;;25.65;14.70;;;15.90;62.00;;;;;;5052819;28;20392;-17
2023/03/08 09:52:12;;;;;;;24.27;15.03;;;16.10;59.70;;;;;;5050799;28;20387;-17
2023/03/08 09:54:39;;;;;;;21.02;12.50;;;16.20;58.70;;;;;;5052962;28;20021;-15
2023/03/08 09:57:13;;;;;;;24.52;14.57;;;16.30;60.50;;;;;;5053445;28;20029;-17
2023/03/08 09:59:59;;;;;;;23.63;13.30;;;16.50;59.90;;;;;;5053055;28;20079;-17
2023/03/08 10:02:40;;;;;;;25.20;14.05;;;16.60;59.40;;;;;;5052382;28;20130;-17
2023/03/08 10:05:27;;;;;;;24.42;13.65;;;16.90;59.50;;;;;;5052968;28;20044;-18
2023/03/08 10:08:17;;;;;;;23.30;14.00;;;17.10;55.30;;;;;;5052805;28;20040;-16
2023/03/08 10:10:49;;;;;;;23.10;12.13;;;17.30;55.60;;;;;;5052796;28;20056;-16
2023/03/08 10:13:33;;;;;;;25.98;14.10;;;17.40;56.50;;;;;;5052991;28;20025;-16
2023/03/08 10:16:05;;;;;;;19.00;11.63;;;17.50;51.40;;;;;;5052857;28;20033;-18
2023/03/08 10:18:58;;;;;;;19.85;12.00;;;17.50;56.30;;;;;;5052286;28;20091;-17
2023/03/08 10:21:25;;;;;;;19.40;10.43;;;17.60;56.20;;;;;;5052610;28;20496;-17
2023/03/08 10:24:03;;;;;;;20.55;13.10;;;17.90;56.30;;;;;;5052518;28;20033;-16
2023/03/08 10:26:29;;;;;;;22.17;13.55;;;18.00;56.20;;;;;;5052515;28;20078;-17
2023/03/08 10:28:56;;;;;;;27.02;15.73;;;18.10;53.70;;;;;;5052409;28;20029;-15
2023/03/08 10:31:27;;;;;;;24.67;13.40;;;18.20;53.80;;;;;;5052549;28;20443;-17
2023/03/08 10:34:11;;;;;;;23.88;15.23;;;18.20;54.10;;;;;;5052301;28;20469;-17
2023/03/08 10:36:48;;;;;;;23.10;13.63;;;18.10;52.80;;;;;;5052650;28;20078;-17
2023/03/08 10:39:15;;;;;;;25.55;14.57;;;17.90;53.40;;;;;;5052587;28;20033;-17
2023/03/08 10:41:50;;;;;;;21.13;13.00;;;18.00;54.50;;;;;;5052231;28;20488;-17
2023/03/08 10:44:39;;;;;;;28.23;14.40;;;18.20;54.70;;;;;;5052463;28;20037;-16
2023/03/08 10:47:22;;;;;;;24.05;14.52;;;18.30;51.60;;;;;;5052359;28;20071;-16
2023/03/08 10:49:50;;;;;;;28.23;16.15;;;18.30;53.40;;;;;;5052128;28;20037;-16
2023/03/08 10:52:27;;;;;;;27.40;15.00;;;18.00;52.10;;;;;;5052439;28;20021;-17
2023/03/08 10:55:00;;;;;;;27.58;16.05;;;17.50;53.50;;;;;;5050605;28;20488;-17
2023/03/08 11:00:01;;;;;;;23.27;15.07;;;17.20;55.00;;;;;;5088834;28;20056;-20
2023/03/08 11:02:27;;;;;;;18.55;12.77;;;17.20;55.60;;;;;;5094049;28;20028;-19
2023/03/08 11:04:58;;;;;;;29.45;16.52;;;17.40;55.50;;;;;;5096088;28;20105;-18
2023/03/08 11:07:32;;;;;;;26.17;15.27;;;17.50;52.90;;;;;;5096598;28;20032;-18
2023/03/08 11:10:17;;;;;;;28.42;16.38;;;17.70;53.70;;;;;;5096544;28;20024;-19
2023/03/08 11:12:43;;;;;;;20.13;13.43;;;17.80;53.60;;;;;;5096156;28;20028;-20
2023/03/08 11:15:17;;;;;;;19.52;13.63;;;17.90;53.90;;;;;;5096676;28;20024;-19
2023/03/08 11:17:54;;;;;;;21.05;13.10;;;18.00;53.40;;;;;;5077890;28;20035;-21
2023/03/08 11:20:33;;;;;;;23.15;13.23;;;18.40;52.20;;;;;;5096363;28;20131;-21
2023/03/08 11:23:01;;;;;;;23.25;14.43;;;18.60;52.10;;;;;;5095815;28;20032;-21
2023/03/08 11:25:27;;;;;;;24.15;14.88;;;18.90;51.00;;;;;;5096879;28;20035;-20
2023/03/08 11:28:33;;;;;;;21.27;14.32;;;19.20;49.90;;;;;;5096094;28;20346;-20
2023/03/08 11:31:26;;;;;;;20.95;12.95;;;19.40;49.10;;;;;;5095623;28;20036;-20
2023/03/08 11:34:39;;;;;;;19.13;12.23;;;19.80;49.50;;;;;;5096070;28;20114;-20
2023/03/08 11:37:17;;;;;;;20.50;13.65;;;20.10;49.80;;;;;;5165528;22;20362;-16
2023/03/08 11:39:57;;;;;;;22.45;14.55;;;20.40;45.90;;;;;;5116195;28;20485;-15
2023/03/08 11:42:41;;;;;;;23.38;15.68;;;20.50;45.40;;;;;;5116152;28;20477;-15
2023/03/08 11:45:19;;;;;;;25.20;13.70;;;20.60;44.00;;;;;;5116099;28;20071;-16
2023/03/08 11:47:52;;;;;;;27.42;16.50;;;20.60;45.00;;;;;;5116420;28;20027;-16
2023/03/08 11:50:21;;;;;;;22.00;13.85;;;20.90;44.30;;;;;;5187455;22;20051;-17
2023/03/08 11:53:16;;;;;;;24.35;15.25;;;21.00;44.90;;;;;;5095448;28;20081;-18
2023/03/08 11:55:44;;;;;;;20.48;13.63;;;21.20;43.70;;;;;;5153907;22;20198;-14
2023/03/08 11:58:30;;;;;;;28.92;15.45;;;21.40;45.10;;;;;;5074208;28;20040;-15
2023/03/08 12:01:08;;;;;;;25.45;15.68;;;21.50;44.60;;;;;;5074955;28;20024;-16
2023/03/08 12:03:42;;;;;;;25.30;16.17;;;21.60;41.90;;;;;;5075071;28;20028;-17
2023/03/08 12:06:29;;;;;;;18.58;12.13;;;21.80;44.40;;;;;;5075110;28;20021;-17
2023/03/08 12:09:03;;;;;;;24.85;13.70;;;21.90;43.90;;;;;;5074903;28;20097;-17
2023/03/08 12:11:34;;;;;;;21.58;13.68;;;22.10;42.30;;;;;;5075167;28;20020;-15
2023/03/08 12:14:17;;;;;;;23.20;14.18;;;22.40;39.10;;;;;;5074318;28;20025;-15
2023/03/08 12:16:55;;;;;;;20.27;12.90;;;22.50;39.80;;;;;;5074659;28;20033;-17
2023/03/08 12:19:30;;;;;;;18.30;11.55;;;22.50;40.10;;;;;;5075277;28;20024;-15
2023/03/08 12:22:22;;;;;;;20.67;11.43;;;22.60;40.00;;;;;;5074935;28;20021;-13
2023/03/08 12:25:05;;;;;;;21.92;13.07;;;22.80;40.20;;;;;;5074449;28;20032;-15
2023/03/08 12:27:34;;;;;;;22.88;14.90;;;23.00;39.90;;;;;;5074999;28;20029;-15
2023/03/08 12:30:38;;;;;;;22.42;12.57;;;22.80;39.60;;;;;;5073257;28;20191;-15
2023/03/08 12:33:07;;;;;;;23.38;14.55;;;22.30;40.50;;;;;;5062622;28;20070;-16
2023/03/08 12:35:37;;;;;;;19.70;13.05;;;22.00;41.10;;;;;;5075019;28;20052;-16
2023/03/08 12:38:04;;;;;;;24.15;14.52;;;21.70;41.60;;;;;;5074630;28;20024;-15
2023/03/08 12:40:51;;;;;;;23.00;14.30;;;21.50;42.30;;;;;;5073318;28;20368;-17
2023/03/08 12:43:20;;;;;;;24.80;14.18;;;21.50;42.20;;;;;;5074886;28;20052;-15
2023/03/08 12:46:07;;;;;;;20.98;12.65;;;21.60;41.30;;;;;;5072986;28;20036;-15
2023/03/08 12:48:45;;;;;;;21.90;13.18;;;21.80;40.70;;;;;;5074365;28;20120;-15
2023/03/08 12:51:11;;;;;;;20.33;12.50;;;22.00;41.40;;;;;;5074372;28;20032;-16
2023/03/08 12:53:42;;;;;;;27.55;14.93;;;22.10;41.20;;;;;;5072888;28;20029;-15